Latest Weather Observations for Hughenden

IDQ60801

Issued at 10:32 am EST Saturday 6 February 2016 (issued every 30 minutes, with the page automatically refreshed every 10 minutes)

About weather observations | Map of weather stations | Latest weather observations for QLD | Other Formats
Station Details ID: 030022 Name: HUGHENDEN AIRPORT Lat: -20.82 Lon: 144.23 Height: 316.4 m
Data from the previous 72 hours. | See also: Recent months at Hughenden
Date/Time
EST
Temp
°C
App
Temp
°C
Dew
Point
Rel
Hum
%
Delta-T
°C
Wind Press
QNH
hPa
Press
MSL
hPa
Rain
since 9 am
mm
Dir
 
Spd
km/h
Gust
km/h
Spd
kts
Gust
kts
06/10:30am 29.1 31.6 21.1 62 5.4 W 9 15 5 8 1006.2 1003.9 0.0
06/10:00am 28.5 31.6 21.5 66 4.7 WNW 7 11 4 6 1006.3 1004.0 0.0
06/09:30am 27.3 31.2 21.1 69 4.2 WSW 2 9 1 5 1006.3 1004.0 0.0
06/09:00am 26.9 30.5 21.2 71 3.8 WSW 4 9 2 5 1006.3 1004.0 0.0
06/08:30am 25.8 29.7 21.2 76 3.1 WNW 2 6 1 3 1006.0 1003.7 0.0
06/08:00am 24.6 28.0 21.7 84 2.0 WSW 6 7 3 4 1005.6 1003.3 0.0
06/07:30am 23.8 26.7 21.1 85 1.8 W 7 9 4 5 1005.3 1003.0 0.0
06/07:00am 23.5 26.5 20.8 85 1.8 WNW 6 7 3 4 1005.0 1002.7 0.0
06/06:30am 23.2 26.1 20.7 86 1.6 NW 6 7 3 4 1004.7 1002.4 0.0
06/06:00am 23.2 27.3 20.7 86 1.7 CALM 0 0 0 0 1004.3 1001.9 0.0
06/05:30am 23.1 27.1 20.6 86 1.6 CALM 0 0 0 0 1004.0 1001.6 0.0
06/05:00am 23.5 27.5 20.6 84 1.9 CALM 0 0 0 0 1003.5 1001.1 0.0
06/04:30am 23.6 27.6 20.5 83 2.0 CALM 0 0 0 0 1003.0 1000.7 0.0
06/04:00am 23.7 27.1 20.2 81 2.3 SW 2 6 1 3 1002.9 1000.6 0.0
06/03:30am 23.9 26.7 20.4 81 2.3 SW 6 7 3 4 1003.1 1000.8 0.0
06/03:00am 24.2 26.5 20.7 81 2.3 SSW 9 13 5 7 1003.3 1001.0 0.0
06/02:30am 24.2 26.9 21.3 84 1.9 WSW 9 11 5 6 1003.5 1001.1 0.0
06/02:00am 24.5 28.0 21.8 85 1.8 N 6 7 3 4 1003.7 1001.3 0.0
06/01:30am 24.6 29.1 21.5 83 2.1 CALM 0 6 0 3 1003.8 1001.4 0.0
06/01:00am 24.8 28.5 21.5 82 2.2 SSW 4 7 2 4 1004.0 1001.6 0.0
06/12:30am 25.0 28.4 21.7 82 2.2 SSW 6 7 3 4 1004.4 1002.0 0.0
06/12:00am 25.3 29.5 21.8 81 2.4 S 2 7 1 4 1005.0 1002.7 0.0
 
Date/Time
EST
Temp
°C
App
Temp
°C
Dew
Point
Rel
Hum
%
Delta-T
°C
Wind Press
QNH
hPa
Press
MSL
hPa
Rain
since 9 am
mm
Dir
 
Spd
km/h
Gust
km/h
Spd
kts
Gust
kts
05/11:30pm 25.7 30.4 22.0 80 2.5 CALM 0 0 0 0 1005.4 1003.1 0.0
05/11:00pm 26.1 30.6 21.5 76 3.1 CALM 0 0 0 0 1005.7 1003.4 0.0
05/10:30pm 26.2 29.4 21.2 74 3.3 SSE 6 7 3 4 1005.9 1003.6 0.0
05/10:00pm 26.3 29.2 21.1 73 3.5 S 7 9 4 5 1005.7 1003.4 0.0
05/09:30pm 26.8 29.9 21.1 71 3.8 S 6 7 3 4 1005.5 1003.2 0.0
05/09:00pm 27.2 30.1 21.0 69 4.2 SSW 7 9 4 5 1005.4 1003.1 0.0
05/08:30pm 27.5 30.8 21.5 70 4.0 SW 6 7 3 4 1005.3 1003.0 0.0
05/08:00pm 27.8 31.2 21.6 69 4.2 SW 6 7 3 4 1005.3 1003.0 0.0
05/07:30pm 28.1 31.4 21.4 67 4.5 WSW 6 9 3 5 1005.0 1002.7 0.0
05/07:00pm 28.7 31.2 20.2 60 5.7 SW 7 11 4 6 1004.3 1001.9 0.0
05/06:30pm 29.3 30.4 19.6 56 6.4 SSW 13 19 7 10 1003.7 1001.3 0.0
05/06:00pm 29.5 30.8 19.2 54 6.8 SSW 11 17 6 9 1003.3 1001.0 0.0
05/05:30pm 29.7 29.8 19.1 53 7.0 SSW 17 24 9 13 1003.0 1000.7 0.0
05/05:00pm 29.8 31.1 20.1 56 6.5 SSW 13 20 7 11 1002.9 1000.6 0.0
05/04:30pm 29.0 29.3 20.4 59 5.7 SSW 19 24 10 13 1003.1 1000.8 0.0
05/04:00pm 29.4 29.9 20.8 60 5.8 SSW 19 26 10 14 1003.3 1001.0 0.0
05/03:30pm 29.1 30.4 21.6 64 5.1 SW 17 22 9 12 1003.6 1001.2 0.0
05/03:00pm 29.6 31.1 20.5 58 6.1 WSW 13 17 7 9 1003.7 1001.3 0.0
05/02:30pm 29.8 31.0 20.6 57 6.2 SW 15 20 8 11 1003.9 1001.5 0.0
05/02:00pm 29.9 31.1 19.9 55 6.7 WSW 13 22 7 12 1004.2 1001.8 0.0
05/01:30pm 30.3 32.2 21.4 59 6.0 WSW 13 20 7 11 1004.7 1002.4 0.0
05/01:00pm 29.0 32.7 20.7 61 5.6 W 2 9 1 5 1005.0 1002.7 0.0
05/12:30pm 28.4 31.2 20.9 64 5.0 NW 7 11 4 6 1005.4 1003.1 0.0
05/12:00pm 27.4 30.1 20.7 67 4.5 WNW 7 13 4 7 1005.9 1003.6 0.0
05/11:30am 26.9 29.5 21.2 71 3.8 W 9 11 5 6 1006.3 1004.0 0.0
05/11:00am 27.2 31.4 21.7 72 3.7 WNW 2 11 1 6 1006.5 1004.2 0.0
05/10:30am 26.4 29.1 20.7 71 3.8 WSW 7 11 4 6 1006.5 1004.2 0.0
05/10:00am 25.9 28.8 21.1 75 3.2 SSW 7 11 4 6 1006.6 1004.3 0.0
05/09:30am 25.3 28.0 21.4 79 2.6 SSW 9 13 5 7 1006.8 1004.4 0.0
05/09:00am 24.5 26.6 21.0 81 2.3 S 11 15 6 8 1006.6 1004.3 9.6
05/08:30am 24.0 25.9 20.5 81 2.3 S 11 13 6 7 1006.1 1003.8 9.6
05/08:00am 24.1 26.2 21.0 83 2.1 S 11 15 6 8 1005.7 1003.4 9.6
05/07:30am 23.8 26.3 21.1 85 1.8 SSW 9 13 5 7 1005.4 1003.1 9.6
05/07:00am 23.7 26.8 21.4 87 1.5 SSW 7 9 4 5 1005.2 1002.9 9.6
05/06:30am 23.3 24.9 20.8 86 1.7 S 13 17 7 9 1004.8 1002.5 9.6
05/06:00am 23.5 25.9 20.8 85 1.8 S 9 13 5 7 1004.6 1002.2 9.6
05/05:30am 23.8 26.9 21.1 85 1.8 SSW 6 7 3 4 1004.2 1001.8 9.6
05/05:00am 23.9 27.0 21.4 86 1.7 SSW 7 11 4 6 1003.9 1001.5 9.6
05/04:30am 24.1 27.2 21.4 85 1.8 S 7 9 4 5 1003.8 1001.4 9.6
05/04:00am 24.3 27.7 22.0 87 1.6 SSW 7 9 4 5 1003.8 1001.4 9.4
05/03:30am 24.2 27.8 22.1 88 1.4 WSW 6 7 3 4 1003.9 1001.5 9.4
05/03:00am 24.3 27.4 22.2 88 1.4 WSW 9 11 5 6 1004.2 1001.8 9.4
05/02:30am 24.2 27.3 22.1 88 1.4 W 9 11 5 6 1004.5 1002.1 9.4
05/02:00am 24.2 27.7 22.1 88 1.4 W 7 11 4 6 1004.7 1002.4 9.4
05/01:30am 24.2 27.7 22.1 88 1.4 W 7 9 4 5 1005.0 1002.7 9.4
05/01:00am 24.3 27.4 22.2 88 1.4 W 9 11 5 6 1005.3 1003.0 9.4
05/12:30am 24.4 28.0 22.3 88 1.4 W 7 11 4 6 1005.7 1003.4 9.4
05/12:00am 24.3 27.4 22.2 88 1.4 NW 9 11 5 6 1006.2 1003.9 9.4
 
Date/Time
EST
Temp
°C
App
Temp
°C
Dew
Point
Rel
Hum
%
Delta-T
°C
Wind Press
QNH
hPa
Press
MSL
hPa
Rain
since 9 am
mm
Dir
 
Spd
km/h
Gust
km/h
Spd
kts
Gust
kts
04/11:30pm 24.3 29.0 22.0 87 1.5 CALM 0 0 0 0 1006.5 1004.2 9.4
04/11:00pm 24.3 27.7 22.0 87 1.6 SSW 7 9 4 5 1006.8 1004.4 9.4
04/10:30pm 24.4 26.8 22.3 88 1.4 WSW 13 15 7 8 1007.1 1004.7 9.2
04/10:00pm 24.5 29.0 22.2 87 1.6 W 2 6 1 3 1006.9 1004.5 8.8
04/09:30pm 24.6 28.2 22.3 87 1.6 WNW 7 9 4 5 1006.5 1004.2 7.2
04/09:00pm 24.6 28.3 22.3 87 1.6 WSW 6 7 3 4 1006.4 1004.1 4.8
04/08:30pm 24.8 28.1 22.5 87 1.6 SW 9 13 5 7 1006.4 1004.1 2.6
04/08:00pm 24.9 27.1 22.6 87 1.6 S 15 20 8 11 1006.1 1003.8 1.6
04/07:30pm 24.9 28.2 22.6 87 1.6 SW 9 13 5 7 1006.1 1003.8 1.6
04/07:00pm 24.8 26.8 22.3 86 1.7 SSW 15 20 8 11 1005.4 1003.1 1.4
04/06:30pm 25.3 26.6 22.4 84 2.0 WSW 19 28 10 15 1005.1 1002.8 1.4
04/06:00pm 26.2 27.0 22.5 80 2.5 WSW 22 28 12 15 1005.0 1002.7 1.4
04/05:30pm 26.9 27.9 22.9 79 2.7 SW 22 28 12 15 1004.4 1002.0 1.4
04/05:00pm 29.2 28.8 22.4 66 4.7 W 28 39 15 21 1003.5 1001.1 1.4
04/04:30pm 29.9 29.8 22.3 63 5.2 W 26 33 14 18 1003.6 1001.2 1.4
04/04:00pm 31.6 31.2 22.3 57 6.4 W 28 37 15 20 1003.2 1000.9 1.4
04/03:30pm 30.5 32.0 22.7 63 5.4 W 19 26 10 14 1003.6 1001.2 1.2
04/03:00pm 30.2 29.9 21.8 60 5.7 WNW 26 32 14 17 1003.9 1001.5 1.2
04/02:30pm 29.9 31.9 23.6 69 4.4 W 19 26 10 14 1004.3 1001.9 1.2
04/02:00pm 30.6 33.2 23.3 65 5.1 W 15 20 8 11 1004.9 1002.6 0.2
04/01:30pm 31.0 32.7 22.3 60 6.0 WNW 17 26 9 14 1005.4 1003.1 0.2
04/01:00pm 30.4 31.3 22.6 63 5.4 NW 22 32 12 17 1005.8 1003.5 0.2
04/12:30pm 29.9 30.8 23.3 67 4.6 NW 24 32 13 17 1006.3 1004.0 0.2
04/12:00pm 28.2 30.6 23.6 76 3.2 WNW 17 28 9 15 1006.6 1004.3 0.0
04/11:30am 27.9 30.9 23.3 76 3.2 NNW 13 19 7 10 1006.8 1004.4 0.0
04/11:00am 27.7 31.3 23.7 79 2.8 NNW 11 19 6 10 1006.6 1004.3 0.0
04/10:30am 27.4 31.6 23.2 78 2.9 NW 6 9 3 5 1007.1 1004.7 0.0
04/10:00am 27.1 32.3 22.9 78 2.9 CALM 0 0 0 0 1007.1 1004.7 0.0
04/09:30am 26.7 30.8 23.0 80 2.5 N 6 9 3 5 1007.4 1005.0 0.0
04/09:00am 26.2 30.4 23.5 85 1.9 NNE 7 9 4 5 1007.7 1005.4 5.4
04/08:30am 25.7 31.1 23.2 86 1.7 CALM 0 0 0 0 1007.8 1005.5 5.4
04/08:00am 25.2 29.5 22.7 86 1.7 E 4 7 2 4 1007.8 1005.5 5.4
04/07:30am 25.0 28.4 22.7 87 1.6 ESE 9 11 5 6 1007.2 1004.8 5.4
04/07:00am 25.1 29.1 22.8 87 1.6 S 6 7 3 4 1007.2 1004.8 5.4
04/06:30am 25.2 29.8 23.1 88 1.4 S 4 9 2 5 1007.3 1004.9 5.4
04/06:00am 25.2 28.1 23.1 88 1.4 SSE 13 17 7 9 1007.3 1004.9 5.2
04/05:30am 25.2 28.1 23.1 88 1.4 ESE 13 17 7 9 1006.3 1004.0 5.2
04/05:00am 25.2 29.3 22.9 87 1.6 N 6 7 3 4 1006.5 1004.2 5.2
04/04:30am 25.1 29.0 23.0 88 1.4 NNE 7 9 4 5 1006.2 1003.9 5.2
04/04:00am 25.2 28.8 23.1 88 1.4 NNE 9 13 5 7 1006.0 1003.7 4.0
04/03:30am 25.4 30.3 23.1 87 1.6 NNE 2 7 1 4 1005.8 1003.5 3.4
04/03:00am 25.4 29.0 23.1 87 1.6 SE 9 9 5 5 1005.5 1003.2 3.2
04/02:30am 25.4 29.0 23.1 87 1.6 ESE 9 13 5 7 1005.8 1003.5 3.2
04/02:00am 25.5 30.8 23.0 86 1.7 CALM 0 4 0 2 1006.5 1004.2 2.0
04/01:30am 25.4 29.3 22.9 86 1.7 S 7 11 4 6 1007.1 1004.7 1.6
04/01:00am 26.1 28.6 23.2 84 2.0 SSW 15 22 8 12 1007.3 1004.9 1.2
04/12:30am 26.4 30.0 23.7 85 1.9 SW 11 15 6 8 1007.5 1005.1 1.0
04/12:00am 26.2 30.0 23.5 85 1.9 S 9 13 5 7 1007.8 1005.5 1.0
 
Date/Time
EST
Temp
°C
App
Temp
°C
Dew
Point
Rel
Hum
%
Delta-T
°C
Wind Press
QNH
hPa
Press
MSL
hPa
Rain
since 9 am
mm
Dir
 
Spd
km/h
Gust
km/h
Spd
kts
Gust
kts
03/11:30pm 26.6 32.2 23.5 83 2.1 CALM 0 4 0 2 1008.3 1006.0 1.0
03/11:00pm 26.4 30.2 23.5 84 2.0 WNW 9 13 5 7 1008.5 1006.2 1.0
03/10:30pm 26.2 29.1 23.1 83 2.1 W 13 17 7 9 1008.2 1005.9 1.0
03/10:00pm 26.6 28.2 22.9 80 2.5 W 19 26 10 14 1008.3 1006.0 0.4
03/09:30pm 29.0 29.0 21.7 64 5.0 WNW 24 35 13 19 1008.0 1005.7 0.2
03/09:00pm 29.7 30.7 22.2 64 5.1 W 20 28 11 15 1007.6 1005.3 0.2
03/08:30pm 29.7 29.7 21.6 61 5.5 W 24 33 13 18 1007.0 1004.6 0.2
03/08:00pm 30.7 28.9 21.2 57 6.5 W 32 43 17 23 1006.2 1003.9 0.0
03/07:54pm 31.1 30.1 21.3 56 6.7 W 28 39 15 21 1006.0 1003.7 0.0
03/07:30pm 32.3 32.9 19.5 46 8.5 WSW 15 20 8 11 1005.0 1002.7 0.0
03/07:00pm 33.1 34.9 20.3 47 8.6 W 11 20 6 11 1004.9 1002.6 0.0
03/06:30pm 32.5 35.6 21.4 52 7.6 N 7 11 4 6 1004.6 1002.2 0.0
03/06:00pm 32.3 33.7 21.8 54 7.2 NNW 17 20 9 11 1004.3 1001.9 0.0
03/05:30pm 32.9 32.3 20.4 47 8.4 NNW 24 39 13 21 1004.0 1001.6 0.0
03/05:00pm 33.4 33.0 20.2 46 8.9 SW 22 32 12 17 1003.5 1001.1 0.0
03/04:55pm 32.8 31.2 20.0 47 8.6 WSW 28 46 15 25 1003.5 1001.1 0.0
03/04:30pm 35.4 34.4 18.9 37 11.0 WNW 22 30 12 16 1003.1 1000.8 0.0
03/04:00pm 36.4 35.8 18.9 35 11.7 NW 20 26 11 14 1003.5 1001.1 0.0
03/03:30pm 36.1 36.2 19.9 38 10.9 W 19 26 10 14 1003.8 1001.4 0.0
03/03:00pm 35.9 36.3 18.9 36 11.4 NW 15 24 8 13 1003.9 1001.5 0.0
03/02:30pm 36.0 37.4 20.3 40 10.7 W 13 26 7 14 1004.5 1002.1 0.0
03/02:00pm 35.2 36.0 19.9 40 10.3 WNW 15 28 8 15 1005.0 1002.7 0.0
03/01:30pm 34.7 35.3 19.5 40 10.2 NW 15 22 8 12 1005.7 1003.4 0.0
03/01:00pm 34.7 36.3 21.4 46 9.1 NW 15 26 8 14 1006.3 1004.0 0.0
03/12:30pm 34.2 34.5 21.6 47 8.7 NNW 22 35 12 19 1006.9 1004.5 0.0
03/12:00pm 33.2 33.5 20.4 47 8.7 WNW 19 30 10 16 1007.7 1005.4 0.0
03/11:30am 32.8 33.1 21.6 51 7.7 NW 22 26 12 14 1008.3 1006.0 0.0
03/11:00am 32.3 33.0 21.5 53 7.4 NW 20 30 11 16 1008.6 1006.3 0.0

Other Formats:

Comma delimited format used in spreadsheet applications
http://www.bom.gov.au/fwo/IDQ60801/IDQ60801.94343.axf

JavaScript Object Notation format (JSON) in row-major order
http://www.bom.gov.au/fwo/IDQ60801/IDQ60801.94343.json